Flight Track Log - Related Links

Times and Time Zones

All times are in EDT time to prevent confusion due to time zone crossing. See the EJA829P flight status page for this flight to view local times or setup timezone preferences in your user account.

Time Position Orientation Groundspeed Altitude Reporting Facility
EDT Latitude Longitude Course Direction KTS MPH feet Rate Location/Type
Fri 08:58:01 AM 33.9333 -84.2667 North 218 251 3,200  Level Atlanta TRACON
Fri 08:59:50 AM 34.0486 -84.2544 North 233 268 8,500 2,805 Climbing Atlanta Center
Fri 09:00:50 AM 34.1239 -84.2647 354° North 253 291 11,100 2,350 Climbing Atlanta Center
Fri 09:01:50 AM 34.2136 -84.2775 353° North 295 339 13,200 2,250 Climbing Atlanta Center
Fri 09:02:50 AM 34.3094 -84.2853 356° North 333 383 15,600 2,350 Climbing Atlanta Center
Fri 09:03:00 AM 34.4712 -84.3000 North  Level FlightAware Approximate
Fri 09:03:50 AM 34.4033 -84.2906 357° North 345 397 17,900  Level Atlanta Center
Fri 09:04:50 AM 34.4994 -84.2908 360° North 345 397 20,000 2,200 Climbing Atlanta Center
Fri 09:05:50 AM 34.5914 -84.2911 360° North 339 390 22,300 2,300 Climbing Atlanta Center
Fri 09:06:50 AM 34.6853 -84.3039 354° North 339 390 24,600 2,150 Climbing Atlanta Center
Fri 09:07:50 AM 34.7769 -84.3372 343° North 334 384 26,600 2,000 Climbing Atlanta Center
Fri 09:08:50 AM 34.8708 -84.3553 351° North 339 390 28,600 2,000 Climbing Atlanta Center
Fri 09:09:50 AM 34.9606 -84.3758 349° North 339 390 30,600 1,750 Climbing Atlanta Center
Fri 09:10:50 AM 35.0564 -84.3864 355° North 332 382 32,100 1,350 Climbing Atlanta Center
Fri 09:11:50 AM 35.1544 -84.3994 354° North 338 389 33,300 1,100 Climbing Atlanta Center
Fri 09:12:50 AM 35.2608 -84.4128 354° North 364 419 34,300 850 Climbing Atlanta Center
Fri 09:13:50 AM 35.3692 -84.4233 355° North 380 437 35,000 700 Climbing Atlanta Center
Fri 09:14:50 AM 35.4800 -84.4161 North 385 443 35,700 950 Climbing Atlanta Center
Fri 09:15:50 AM 35.5925 -84.4142 North 390 449 36,900 831 Climbing Atlanta Center
Fri 09:17:36 AM 35.7883 -84.4064 North 395 455 38,000 393 Climbing Indianapolis Center
Fri 09:18:38 AM 35.9006 -84.4033 North 404 465 38,000  Level Indianapolis Center
Fri 09:19:40 AM 36.0142 -84.3992 North 410 472 38,000  Level Indianapolis Center
Fri 09:20:42 AM 36.1278 -84.3953 North 411 473 38,000  Level Indianapolis Center
Fri 09:21:44 AM 36.2375 -84.3928 North 398 458 38,000  Level Indianapolis Center
Fri 09:22:45 AM 36.3675 -84.3878 North 391 450 38,000  Level Indianapolis Center
Fri 09:23:47 AM 36.4739 -84.3850 North 384 442 38,000 97 Level Indianapolis Center
Fri 09:24:49 AM 36.5656 -84.4197 343° North 374 430 38,200 484 Climbing Indianapolis Center
Fri 09:25:51 AM 36.6628 -84.4797 334° Northwest 385 443 39,000 387 Climbing Indianapolis Center
Fri 09:26:53 AM 36.7669 -84.5450 333° Northwest 390 449 39,000  Level Indianapolis Center
Fri 09:27:55 AM 36.8631 -84.6053 333° Northwest 389 448 39,000  Level Indianapolis Center
Fri 09:28:57 AM 36.9781 -84.6767 334° Northwest 384 442 39,000  Level Indianapolis Center
Fri 09:29:59 AM 37.0656 -84.7325 333° Northwest 384 442 39,000  Level Indianapolis Center
Fri 09:31:01 AM 37.1606 -84.7933 333° Northwest 382 440 39,000  Level Indianapolis Center
Fri 09:32:03 AM 37.2714 -84.8631 333° Northwest 380 437 39,000  Level Indianapolis Center
Fri 09:33:05 AM 37.3644 -84.9219 333° Northwest 376 433 39,000  Level Indianapolis Center
Fri 09:34:07 AM 37.4592 -84.9828 333° Northwest 379 436 39,000  Level Indianapolis Center
Fri 09:35:09 AM 37.5522 -85.0433 333° Northwest 377 434 39,000  Level Indianapolis Center
Fri 09:36:11 AM 37.6453 -85.1039 333° Northwest 376 433 39,000  Level Indianapolis Center
Fri 09:37:13 AM 37.7392 -85.1639 333° Northwest 375 432 39,000  Level Indianapolis Center
Fri 09:38:15 AM 37.8369 -85.2283 333° Northwest 377 434 39,000  Level Indianapolis Center
Fri 09:39:18 AM 37.9322 -85.2878 334° Northwest 379 436 39,000 -96 Level Indianapolis Center
Fri 09:40:20 AM 38.0244 -85.3486 333° Northwest 376 433 38,800 -726 Descending Indianapolis Center
Fri 09:41:22 AM 38.1414 -85.4264 332° Northwest 392 451 37,500 -871 Descending Indianapolis Center
Fri 09:42:24 AM 38.2422 -85.4919 333° Northwest 403 464 37,000 -919 Descending Indianapolis Center
Fri 09:43:26 AM 38.3431 -85.5581 333° Northwest 406 467 35,600 -1,452 Descending Indianapolis Center
Fri 09:44:28 AM 38.4483 -85.6272 333° Northwest 419 482 34,000 -1,548 Descending Indianapolis Center
Fri 09:45:30 AM 38.5519 -85.6958 333° Northwest 421 484 32,400 -1,403 Descending Indianapolis Center
Fri 09:46:32 AM 38.6539 -85.7628 333° Northwest 419 482 31,100 -1,161 Descending Indianapolis Center
Fri 09:47:34 AM 38.7811 -85.8472 333° Northwest 431 496 30,000 -528 Descending Indianapolis Center
Fri 09:48:37 AM 38.8858 -85.9192 332° Northwest 420 483 30,000  Level Indianapolis Center
Fri 09:49:38 AM 38.9897 -85.9872 333° Northwest 428 493 30,000 -244 Level Indianapolis Center
Fri 09:50:40 AM 39.0958 -86.0606 332° Northwest 432 497 29,500 -968 Descending Indianapolis Center
Fri 09:51:42 AM 39.2078 -86.1353 333° Northwest 448 516 28,000 -726 Descending Indianapolis Center
Fri 09:52:44 AM 39.3156 -86.2092 332° Northwest 442 509 28,000  Level Indianapolis Center
Fri 09:53:46 AM 39.4436 -86.2961 332° Northwest 433 498 28,000  Level Indianapolis Center
Fri 09:54:48 AM 39.5500 -86.3697 332° Northwest 431 496 28,000  Level Indianapolis Center
Fri 09:55:50 AM 39.6581 -86.4453 332° Northwest 433 498 28,000 -581 Level Indianapolis Center
Fri 09:56:52 AM 39.7689 -86.5211 332° Northwest 437 503 26,800 -968 Descending Indianapolis Center
Fri 09:57:54 AM 39.8775 -86.5947 333° Northwest 437 503 26,000 -629 Descending Indianapolis Center
Fri 09:58:56 AM 39.9811 -86.6664 332° Northwest 425 489 25,500 -968 Descending Indianapolis Center
Fri 09:59:58 AM 40.0817 -86.7356 332° Northwest 414 476 24,000 -947 Descending Indianapolis Center
Fri 10:00:31 AM 40.1419 -86.7783 332° Northwest 407 468 24,000  Level Chicago Center
Fri 10:01:33 AM 40.2428 -86.8489 332° Northwest 409 471 24,000  Level Chicago Center
Fri 10:02:35 AM 40.3322 -86.9394 322° Northwest 406 467 24,000 -726 Level Chicago Center
Fri 10:03:37 AM 40.4119 -87.0397 316° Northwest 399 459 22,500 -1,258 Descending Chicago Center
Fri 10:04:39 AM 40.5064 -87.1494 319° Northwest 387 445 21,400 -1,452 Descending Chicago Center
Fri 10:05:41 AM 40.5847 -87.2417 318° Northwest 376 433 19,500 -1,742 Descending Chicago Center
Fri 10:06:43 AM 40.6861 -87.2781 345° North 374 430 17,800 -1,839 Descending Chicago Center
Fri 10:07:45 AM 40.7864 -87.3044 349° North 369 425 15,700 -2,352 Descending Chicago Center
Fri 10:08:48 AM 40.9008 -87.3353 348° North 354 407 12,900 -2,352 Descending Chicago Center
Fri 10:09:50 AM 40.9928 -87.3597 349° North 345 397 10,800 -1,839 Descending Chicago Center
Fri 10:10:52 AM 41.0764 -87.3817 349° North 322 371 9,100 -1,645 Descending Chicago Center
Fri 10:11:54 AM 41.1547 -87.4017 349° North 296 341 7,400 -1,742 Descending Chicago Center
Fri 10:12:56 AM 41.2411 -87.4172 352° North 276 318 5,500 -1,645 Descending Chicago Center
Fri 10:13:58 AM 41.3139 -87.3878 17° North 278 320 4,000 -726 Descending Chicago Center
Fri 10:15:00 AM 41.3850 -87.3553 19° North 275 316 4,000  Level Chicago Center
Fri 10:16:02 AM 41.4589 -87.3228 18° North 278 320 4,000  Level Chicago Center
Fri 10:17:04 AM 41.5333 -87.3383 351° North 277 319 4,000  Level Chicago Center
Fri 10:18:06 AM 41.6208 -87.3550 352° North 268 308 4,000 -97 Level Chicago Center
Fri 10:19:08 AM 41.6950 -87.3675 353° North 270 311 3,800 -484 Descending Chicago Center
Fri 10:20:10 AM 41.7653 -87.3800 352° North 266 306 3,000 -384 Descending Chicago Center
Fri 10:21:13 AM 41.8267 -87.3889 354° North 249 287 3,000  Level Chicago Center
Fri 10:22:15 AM 41.8861 -87.3953 355° North 232 267 3,000  Level Chicago Center
Fri 10:23:17 AM 41.9586 -87.4022 356° North 224 258 3,000  Level Chicago Center
Fri 10:24:19 AM 42.0058 -87.4378 331° Northwest 210 242 3,000  Level Chicago Center
Fri 10:25:21 AM 42.0508 -87.4817 324° Northwest 204 235 3,000  Level Chicago Center
Fri 10:26:23 AM 42.0961 -87.5261 324° Northwest 203 234 3,000  Level Chicago Center
Fri 10:27:25 AM 42.1417 -87.5828 317° Northwest 201 231 3,000  Level Chicago Center
Fri 10:28:27 AM 42.1686 -87.6389 303° West 189 217 3,000  Level Chicago Center
Fri 10:29:29 AM 42.1978 -87.7008 302° West 189 217 3,000 -339 Level Chicago Center
Fri 10:30:31 AM 42.2267 -87.7622 302° West 192 221 2,300 -290 Descending Chicago Center
Fri 10:31:33 AM 42.2556 -87.8186 305° West 190 219 2,400 48 Climbing Chicago Center
Fri 10:32:35 AM 42.2636 -87.8917 278° West 195 224 2,400 -48 Level Chicago Center
Fri 10:33:38 AM 42.2258 -87.9342 220° Southwest 185 213 2,300 -192 Descending Chicago Center
Fri 10:34:40 AM 42.1867 -87.9414 188° South 179 206 2,000 -339 Descending Chicago Center
Fri 10:35:42 AM 42.1464 -87.9256 164° South 179 206 1,600 -387 Descending Chicago Center

Login

Don't have an account? Register now (free) for customized features, flight alerts, and more!